createdAt,value
2022-11-13T00:02:27.320Z,19.93
2022-11-13T00:05:13.645Z,18.93
2022-11-13T00:07:59.879Z,21.03
2022-11-13T00:10:45.789Z,18.63
2022-11-13T00:13:33.283Z,20.47
2022-11-13T00:16:22.250Z,20.70
2022-11-13T00:19:08.786Z,18.07
2022-11-13T00:21:56.879Z,16.23
2022-11-13T00:24:43.421Z,17.57
2022-11-13T00:27:32.220Z,18.53
2022-11-13T00:30:19.688Z,19.40
2022-11-13T00:33:06.770Z,17.80
2022-11-13T00:35:52.963Z,19.13
2022-11-13T00:38:39.622Z,15.27
2022-11-13T00:41:26.080Z,16.97
2022-11-13T00:44:12.411Z,18.27
2022-11-13T00:46:58.691Z,20.97
2022-11-13T00:49:44.648Z,18.83
2022-11-13T00:52:31.001Z,20.63
2022-11-13T00:55:17.872Z,18.03
2022-11-13T00:58:07.781Z,17.90
2022-11-13T01:00:54.225Z,16.87
2022-11-13T01:03:41.694Z,22.90
2022-11-13T01:06:30.090Z,19.17
2022-11-13T01:09:16.340Z,17.27
2022-11-13T01:12:02.565Z,17.17
2022-11-13T01:14:48.942Z,17.20
2022-11-13T01:17:35.774Z,17.10
2022-11-13T01:20:25.775Z,15.50
2022-11-13T01:23:12.440Z,15.30
2022-11-13T01:26:27.952Z,14.10
2022-11-13T01:29:13.886Z,16.33
2022-11-13T01:32:00.492Z,16.70
2022-11-13T01:34:46.833Z,20.37
2022-11-13T01:37:33.068Z,15.80
2022-11-13T01:40:19.709Z,16.50
2022-11-13T01:43:39.593Z,19.83
2022-11-13T01:46:34.666Z,23.97
2022-11-13T01:49:34.789Z,17.27
2022-11-13T01:52:36.805Z,19.20
2022-11-13T01:55:23.084Z,16.57
2022-11-13T01:58:12.993Z,17.20
2022-11-13T02:00:59.285Z,14.50
2022-11-13T02:03:45.533Z,16.47
2022-11-13T02:06:51.068Z,19.33
2022-11-13T02:09:57.459Z,15.63
2022-11-13T02:12:52.148Z,18.17
2022-11-13T02:15:41.654Z,18.50
2022-11-13T02:18:31.204Z,18.90
2022-11-13T02:22:07.843Z,15.97
2022-11-13T02:24:58.729Z,18.40
2022-11-13T02:27:51.214Z,15.23
2022-11-13T02:30:38.011Z,16.60
2022-11-13T02:33:33.828Z,16.20
2022-11-13T02:36:25.526Z,18.03
2022-11-13T02:39:14.584Z,13.93
2022-11-13T02:42:00.957Z,12.13
2022-11-13T02:44:47.259Z,15.23
2022-11-13T02:47:34.576Z,14.70
2022-11-13T02:50:21.060Z,16.20
2022-11-13T02:53:07.703Z,18.33
2022-11-13T02:55:54.084Z,12.03
2022-11-13T02:58:40.552Z,13.17
2022-11-13T03:01:27.036Z,15.37
2022-11-13T03:04:13.599Z,15.93
2022-11-13T03:07:00.253Z,15.10
2022-11-13T03:09:47.021Z,16.10
2022-11-13T03:12:34.413Z,12.53
2022-11-13T03:15:20.870Z,13.93
2022-11-13T03:18:09.184Z,13.07
2022-11-13T03:20:55.303Z,14.27
2022-11-13T03:23:45.414Z,11.77
2022-11-13T03:26:32.488Z,14.17
2022-11-13T03:29:18.676Z,13.00
2022-11-13T03:32:05.672Z,16.20
2022-11-13T03:34:52.191Z,13.33
2022-11-13T03:37:38.590Z,14.13
2022-11-13T03:40:25.007Z,12.33
2022-11-13T03:43:11.394Z,14.17
2022-11-13T03:45:57.796Z,12.30
2022-11-13T03:48:44.289Z,13.20
2022-11-13T03:51:30.395Z,13.30
2022-11-13T03:54:16.862Z,14.27
2022-11-13T03:57:03.513Z,13.37
2022-11-13T03:59:49.517Z,12.53
2022-11-13T04:02:35.898Z,13.60
2022-11-13T04:05:23.036Z,14.40
2022-11-13T04:08:10.506Z,12.80
2022-11-13T04:11:13.634Z,13.90
2022-11-13T04:13:59.629Z,14.50
2022-11-13T04:16:45.724Z,12.03
2022-11-13T04:19:31.685Z,15.40
2022-11-13T04:22:17.397Z,15.00
2022-11-13T04:25:05.259Z,13.40
2022-11-13T04:27:53.695Z,14.97
2022-11-13T04:30:40.209Z,15.60
2022-11-13T04:33:26.223Z,20.80
2022-11-13T04:36:12.288Z,17.17
2022-11-13T04:38:58.062Z,15.50
2022-11-13T04:42:02.872Z,17.50
2022-11-13T04:44:50.870Z,15.23
2022-11-13T04:47:38.312Z,15.30
2022-11-13T04:50:26.624Z,15.23
2022-11-13T04:53:14.318Z,17.00
2022-11-13T04:56:02.076Z,15.43
2022-11-13T04:58:49.608Z,16.30
2022-11-13T05:01:37.589Z,18.30
2022-11-13T05:04:26.704Z,18.00
2022-11-13T05:07:14.011Z,13.87
2022-11-13T05:10:01.835Z,17.03
2022-11-13T05:12:48.395Z,16.83
2022-11-13T05:15:34.706Z,19.70
2022-11-13T05:18:25.482Z,15.57
2022-11-13T05:21:13.323Z,16.30
2022-11-13T05:23:59.699Z,13.00
2022-11-13T05:26:45.984Z,17.00
2022-11-13T05:29:32.337Z,16.37
2022-11-13T05:32:18.429Z,15.97
2022-11-13T05:35:05.753Z,17.30
2022-11-13T05:37:52.114Z,20.90
2022-11-13T05:40:38.369Z,27.63
2022-11-13T05:43:24.457Z,26.23
2022-11-13T05:46:28.746Z,89.97
2022-11-13T05:49:14.936Z,55.77
2022-11-13T05:52:00.940Z,43.20
2022-11-13T05:54:47.069Z,38.33
2022-11-13T05:57:33.392Z,44.23
2022-11-13T06:00:20.464Z,33.90
2022-11-13T06:03:06.720Z,40.47
2022-11-13T06:05:53.072Z,38.27
2022-11-13T06:08:39.949Z,35.43
2022-11-13T06:11:30.526Z,36.13
2022-11-13T06:14:17.125Z,34.90
2022-11-13T06:17:03.228Z,31.20
2022-11-13T06:19:52.089Z,35.47
2022-11-13T06:22:38.548Z,40.87
2022-11-13T06:25:25.007Z,34.10
2022-11-13T06:28:11.342Z,36.57
2022-11-13T06:31:09.269Z,34.50
2022-11-13T06:33:57.289Z,32.83
2022-11-13T06:36:43.648Z,34.33
2022-11-13T06:39:29.830Z,33.20
2022-11-13T06:42:15.689Z,27.10
2022-11-13T06:45:02.591Z,23.33
2022-11-13T06:47:48.471Z,24.73
2022-11-13T06:50:34.949Z,24.30
2022-11-13T06:53:20.899Z,24.13
2022-11-13T06:56:08.712Z,32.63
2022-11-13T06:58:56.598Z,29.80
2022-11-13T07:01:42.609Z,23.00
2022-11-13T07:04:28.461Z,24.80
2022-11-13T07:07:14.328Z,21.10
2022-11-13T07:10:00.466Z,25.43
2022-11-13T07:12:50.659Z,25.47
2022-11-13T07:15:40.866Z,23.07
2022-11-13T07:18:27.346Z,20.63
2022-11-13T07:21:14.415Z,24.13
2022-11-13T07:24:00.878Z,18.07
2022-11-13T07:26:46.974Z,18.23
2022-11-13T07:29:33.080Z,18.17
2022-11-13T07:32:19.470Z,20.07
2022-11-13T07:35:07.006Z,21.93
2022-11-13T07:37:58.036Z,20.23
2022-11-13T07:40:44.666Z,19.93
2022-11-13T07:43:31.222Z,19.73
2022-11-13T07:46:17.419Z,21.93
2022-11-13T07:49:03.651Z,19.57
2022-11-13T07:51:49.468Z,24.53
2022-11-13T07:54:36.279Z,20.67
2022-11-13T07:57:23.111Z,19.43
2022-11-13T08:00:10.569Z,16.87
2022-11-13T08:02:57.244Z,19.90
2022-11-13T08:05:44.401Z,19.50
2022-11-13T08:08:31.869Z,19.60
2022-11-13T08:11:18.138Z,17.83
2022-11-13T08:14:04.223Z,18.67
2022-11-13T08:16:50.533Z,21.23
2022-11-13T08:19:36.488Z,18.27
2022-11-13T08:22:22.419Z,22.67
2022-11-13T08:25:08.813Z,20.20
2022-11-13T08:27:55.434Z,19.73
2022-11-13T08:30:46.556Z,25.23
2022-11-13T08:33:32.448Z,19.50
2022-11-13T08:36:18.417Z,19.03
2022-11-13T08:39:04.447Z,19.97
2022-11-13T08:41:50.463Z,18.57
2022-11-13T08:44:36.622Z,16.60
2022-11-13T08:47:28.293Z,16.60
2022-11-13T08:50:15.901Z,15.77
2022-11-13T08:53:02.622Z,13.37
2022-11-13T08:55:49.107Z,13.90
2022-11-13T08:58:35.140Z,12.93
2022-11-13T09:01:23.498Z,12.53
2022-11-13T09:04:09.677Z,10.47
2022-11-13T09:06:56.657Z,9.40
2022-11-13T09:09:43.013Z,10.60
2022-11-13T09:12:29.715Z,11.67
2022-11-13T09:15:19.155Z,10.20
2022-11-13T09:18:10.979Z,10.83
2022-11-13T09:21:03.004Z,12.20
2022-11-13T09:23:49.289Z,9.67
2022-11-13T09:26:37.718Z,10.80
2022-11-13T09:29:26.174Z,9.53
2022-11-13T09:32:12.354Z,12.00
2022-11-13T09:34:58.822Z,9.57
2022-11-13T09:37:44.841Z,9.60
2022-11-13T09:41:18.206Z,11.40
2022-11-13T09:44:21.398Z,10.40
2022-11-13T09:47:24.327Z,9.80
2022-11-13T09:50:31.793Z,10.50
2022-11-13T09:53:19.098Z,9.63
2022-11-13T09:56:51.257Z,10.80
2022-11-13T10:00:05.848Z,7.43
2022-11-13T10:04:00.658Z,11.33
2022-11-13T10:07:25.024Z,12.93
2022-11-13T10:10:57.479Z,11.50
2022-11-13T10:14:02.045Z,9.43
2022-11-13T10:18:00.716Z,8.13
2022-11-13T10:21:14.172Z,6.90
2022-11-13T10:24:27.397Z,6.80
2022-11-13T10:27:15.886Z,7.87
2022-11-13T10:30:03.315Z,8.30
2022-11-13T10:32:50.634Z,14.30
2022-11-13T10:35:42.023Z,15.47
2022-11-13T10:39:06.395Z,23.57
2022-11-13T10:41:56.575Z,10.13
2022-11-13T10:45:01.087Z,12.60
2022-11-13T10:48:07.942Z,6.47
2022-11-13T10:51:04.550Z,8.67
2022-11-13T10:53:52.370Z,6.53
2022-11-13T10:56:38.471Z,5.87
2022-11-13T10:59:26.365Z,5.97
2022-11-13T11:02:22.827Z,6.07
2022-11-13T11:05:29.540Z,6.87
2022-11-13T11:08:16.149Z,5.93
2022-11-13T11:11:37.431Z,5.50
2022-11-13T11:14:42.697Z,5.20
2022-11-13T11:18:00.647Z,5.30
2022-11-13T11:21:01.501Z,6.87
2022-11-13T11:24:22.285Z,11.67
2022-11-13T11:27:29.065Z,5.80
2022-11-13T11:30:26.605Z,5.20
2022-11-13T11:33:51.286Z,5.33
2022-11-13T11:37:13.784Z,9.33
2022-11-13T11:40:36.291Z,5.90
2022-11-13T11:44:15.164Z,5.20
2022-11-13T11:47:01.469Z,15.30
2022-11-13T11:49:47.875Z,6.50
2022-11-13T11:53:17.374Z,7.00
2022-11-13T11:56:30.275Z,4.77
2022-11-13T12:00:00.193Z,6.53
2022-11-13T12:03:38.735Z,6.37
2022-11-13T12:07:00.219Z,3.30
2022-11-13T12:10:38.096Z,3.13
2022-11-13T12:14:01.498Z,4.83
2022-11-13T12:17:29.373Z,4.07
2022-11-13T12:21:02.642Z,3.07
2022-11-13T12:24:52.204Z,3.83
2022-11-13T12:28:24.938Z,2.87
2022-11-13T12:31:53.699Z,3.73
2022-11-13T12:34:55.582Z,3.60
2022-11-13T12:38:24.683Z,3.87
2022-11-13T12:41:43.207Z,3.40
2022-11-13T12:44:38.342Z,4.60
2022-11-13T12:47:25.158Z,6.00
2022-11-13T12:50:33.053Z,4.70
2022-11-13T12:53:43.067Z,4.10
2022-11-13T12:56:33.026Z,5.20
2022-11-13T12:59:34.315Z,4.90
2022-11-13T13:02:43.943Z,4.70
2022-11-13T13:06:26.012Z,5.13
2022-11-13T13:09:51.742Z,4.80
2022-11-13T13:13:24.267Z,3.93
2022-11-13T13:16:12.141Z,4.47
2022-11-13T13:19:31.875Z,4.40
2022-11-13T13:22:36.432Z,4.30
2022-11-13T13:25:36.889Z,3.37
2022-11-13T13:28:25.875Z,3.90
2022-11-13T13:32:20.803Z,3.80
2022-11-13T13:35:18.840Z,4.83
2022-11-13T13:38:52.447Z,3.50
2022-11-13T13:42:42.975Z,3.40
2022-11-13T13:46:22.050Z,3.57
2022-11-13T13:49:23.871Z,4.53
2022-11-13T13:52:17.552Z,5.20
2022-11-13T13:55:08.154Z,4.27
2022-11-13T13:57:55.109Z,4.53
2022-11-13T14:01:05.127Z,8.47
2022-11-13T14:03:47.749Z,5.97
2022-11-13T14:06:34.940Z,5.73
2022-11-13T14:09:29.554Z,5.63
2022-11-13T14:12:23.444Z,6.90
2022-11-13T14:15:35.288Z,12.83
2022-11-13T14:18:21.392Z,6.97
2022-11-13T14:21:26.129Z,11.80
2022-11-13T14:24:50.473Z,6.97
2022-11-13T14:27:38.676Z,7.03
2022-11-13T14:30:31.435Z,6.70
2022-11-13T14:33:34.323Z,5.10
2022-11-13T14:36:33.106Z,5.20
2022-11-13T14:39:32.240Z,4.67
2022-11-13T14:42:43.996Z,4.53
2022-11-13T14:45:33.995Z,7.93
2022-11-13T14:48:33.413Z,4.80
2022-11-13T14:51:33.946Z,5.93
2022-11-13T14:55:13.083Z,5.80
2022-11-13T14:57:50.881Z,5.87
2022-11-13T15:00:39.151Z,5.73
2022-11-13T15:03:27.773Z,6.07
2022-11-13T15:06:27.064Z,5.63
2022-11-13T15:09:18.454Z,6.30
2022-11-13T15:12:04.809Z,5.57
2022-11-13T15:14:51.624Z,4.90
2022-11-13T15:17:37.909Z,6.73
2022-11-13T15:20:31.666Z,7.13
2022-11-13T15:23:26.684Z,5.67
2022-11-13T15:26:14.096Z,6.93
2022-11-13T15:29:00.469Z,7.07
2022-11-13T15:31:48.289Z,8.10
2022-11-13T15:34:34.766Z,7.23
2022-11-13T15:37:20.472Z,7.97
2022-11-13T15:40:08.177Z,8.07
2022-11-13T15:42:55.433Z,5.70
2022-11-13T15:45:44.360Z,6.23
2022-11-13T15:48:30.599Z,8.30
2022-11-13T15:51:46.594Z,7.97
2022-11-13T15:54:38.834Z,7.97
2022-11-13T15:57:31.002Z,9.87
2022-11-13T16:00:26.963Z,7.57
2022-11-13T16:03:13.141Z,23.93
2022-11-13T16:06:00.587Z,21.60
2022-11-13T16:08:48.277Z,31.50
2022-11-13T16:11:35.701Z,19.50
2022-11-13T16:14:25.072Z,17.63
2022-11-13T16:17:20.942Z,23.23
2022-11-13T16:20:15.520Z,26.53
2022-11-13T16:23:01.583Z,20.90
2022-11-13T16:25:49.816Z,17.30
2022-11-13T16:28:52.873Z,12.50
2022-11-13T16:31:43.099Z,12.97
2022-11-13T16:34:29.297Z,11.17
2022-11-13T16:37:24.308Z,10.10
2022-11-13T16:40:26.652Z,8.87
2022-11-13T16:43:13.476Z,11.63
2022-11-13T16:46:19.066Z,11.80
2022-11-13T16:49:05.086Z,13.50
2022-11-13T16:51:52.148Z,23.67
2022-11-13T16:54:38.862Z,26.00
2022-11-13T16:57:27.407Z,19.90
2022-11-13T17:00:19.445Z,15.00
2022-11-13T17:03:05.968Z,12.93
2022-11-13T17:05:53.207Z,16.50
2022-11-13T17:08:39.366Z,13.40
2022-11-13T17:11:30.634Z,17.20
2022-11-13T17:14:16.444Z,14.40
2022-11-13T17:17:06.686Z,12.33
2022-11-13T17:19:53.070Z,15.97
2022-11-13T17:22:38.914Z,11.90
2022-11-13T17:25:28.067Z,15.00
2022-11-13T17:28:14.363Z,11.03
2022-11-13T17:31:10.394Z,11.00
2022-11-13T17:33:56.380Z,11.70
2022-11-13T17:36:42.553Z,13.43
2022-11-13T17:39:28.784Z,13.20
2022-11-13T17:42:14.671Z,11.37
2022-11-13T17:45:01.048Z,12.87
2022-11-13T17:47:47.169Z,13.57
2022-11-13T17:50:34.039Z,16.90
2022-11-13T17:53:20.946Z,12.77
2022-11-13T17:56:11.963Z,14.60
2022-11-13T17:58:58.133Z,18.60
2022-11-13T18:01:44.772Z,13.40
2022-11-13T18:04:32.043Z,14.50
2022-11-13T18:07:18.436Z,12.20
2022-11-13T18:10:05.917Z,14.60
2022-11-13T18:12:52.220Z,13.20
2022-11-13T18:15:40.887Z,10.80
2022-11-13T18:18:26.797Z,12.57
2022-11-13T18:21:23.880Z,12.17
2022-11-13T18:24:19.845Z,10.43
2022-11-13T18:27:06.215Z,11.40
2022-11-13T18:29:52.996Z,11.50
2022-11-13T18:32:39.152Z,10.07
2022-11-13T18:35:25.509Z,10.63
2022-11-13T18:38:11.527Z,10.80
2022-11-13T18:41:19.164Z,10.07
2022-11-13T18:44:05.548Z,9.73
2022-11-13T18:46:51.847Z,8.87
2022-11-13T18:49:37.733Z,9.13
2022-11-13T18:52:24.027Z,7.83
2022-11-13T18:55:10.577Z,12.23
2022-11-13T18:57:56.998Z,9.70
2022-11-13T19:00:43.423Z,11.40
2022-11-13T19:03:30.125Z,13.57
2022-11-13T19:06:21.866Z,15.77
2022-11-13T19:09:16.671Z,33.13
2022-11-13T19:12:02.941Z,17.73
2022-11-13T19:14:49.344Z,15.00
2022-11-13T19:17:35.550Z,26.10
2022-11-13T19:20:21.966Z,13.70
2022-11-13T19:23:09.338Z,14.43
2022-11-13T19:25:55.890Z,9.83
2022-11-13T19:28:46.074Z,11.70
2022-11-13T19:31:32.646Z,9.70
2022-11-13T19:34:18.731Z,9.30
2022-11-13T19:37:05.241Z,10.60
2022-11-13T19:39:51.422Z,8.27
2022-11-13T19:42:40.889Z,9.70
2022-11-13T19:45:29.762Z,10.63
2022-11-13T19:48:29.010Z,8.30
2022-11-13T19:51:21.689Z,9.77
2022-11-13T19:54:09.032Z,7.63
2022-11-13T19:56:55.040Z,9.50
2022-11-13T19:59:41.179Z,7.33
2022-11-13T20:02:27.814Z,12.53
2022-11-13T20:05:13.609Z,8.97
2022-11-13T20:08:00.046Z,14.90
2022-11-13T20:10:46.005Z,28.00
2022-11-13T20:13:36.665Z,13.67
2022-11-13T20:16:24.093Z,8.27
2022-11-13T20:19:10.296Z,8.57
2022-11-13T20:21:56.791Z,14.20
2022-11-13T20:24:43.434Z,16.90
2022-11-13T20:27:29.571Z,15.40
2022-11-13T20:30:15.945Z,11.83
2022-11-13T20:33:01.941Z,11.80
2022-11-13T20:35:54.997Z,9.87
2022-11-13T20:38:47.309Z,9.03
2022-11-13T20:41:33.419Z,6.63
2022-11-13T20:44:19.497Z,8.40
2022-11-13T20:47:05.841Z,9.70
2022-11-13T20:49:52.585Z,8.70
2022-11-13T20:52:38.951Z,9.70
2022-11-13T20:55:25.047Z,9.20
2022-11-13T20:58:11.294Z,9.30
2022-11-13T21:01:15.672Z,12.07
2022-11-13T21:04:01.660Z,18.60
2022-11-13T21:06:48.402Z,16.00
2022-11-13T21:09:34.948Z,15.37
2022-11-13T21:12:20.971Z,12.50
2022-11-13T21:15:08.371Z,22.20
2022-11-13T21:17:54.567Z,13.60
2022-11-13T21:20:41.040Z,15.20
2022-11-13T21:23:30.324Z,16.10
2022-11-13T21:26:17.291Z,11.20
2022-11-13T21:29:03.844Z,19.33
2022-11-13T21:31:49.806Z,16.80
2022-11-13T21:34:35.915Z,16.77
2022-11-13T21:37:22.064Z,12.77
2022-11-13T21:40:11.982Z,34.00
2022-11-13T21:42:58.017Z,13.90
2022-11-13T21:45:44.315Z,28.73
2022-11-13T21:48:33.198Z,16.50
2022-11-13T21:51:19.640Z,21.43
2022-11-13T21:54:07.544Z,10.90
2022-11-13T21:56:54.476Z,11.77
2022-11-13T21:59:40.406Z,11.70
2022-11-13T22:02:26.806Z,12.73
2022-11-13T22:05:13.927Z,11.47
2022-11-13T22:08:00.125Z,14.43
2022-11-13T22:10:47.131Z,14.43
2022-11-13T22:13:33.784Z,12.43
2022-11-13T22:16:21.414Z,12.50
2022-11-13T22:19:25.303Z,10.10
2022-11-13T22:22:13.540Z,9.83
2022-11-13T22:24:59.456Z,10.63
2022-11-13T22:27:45.388Z,10.70
2022-11-13T22:30:34.055Z,10.33
2022-11-13T22:33:20.625Z,11.57
2022-11-13T22:36:34.166Z,11.40
2022-11-13T22:39:20.669Z,10.03
2022-11-13T22:42:06.667Z,9.20
2022-11-13T22:44:56.389Z,12.03
2022-11-13T22:47:43.359Z,11.53
2022-11-13T22:50:29.967Z,10.13
2022-11-13T22:53:15.545Z,11.33
2022-11-13T22:56:15.182Z,10.33
2022-11-13T22:59:06.336Z,13.00
2022-11-13T23:01:52.539Z,12.23
2022-11-13T23:04:38.550Z,12.80
2022-11-13T23:07:25.012Z,14.30
2022-11-13T23:10:11.314Z,13.73
2022-11-13T23:12:57.811Z,14.53
2022-11-13T23:15:44.135Z,10.80
2022-11-13T23:18:32.868Z,16.20
2022-11-13T23:21:20.510Z,13.43
2022-11-13T23:24:09.856Z,12.10
2022-11-13T23:26:56.640Z,12.73
2022-11-13T23:29:47.228Z,15.70
2022-11-13T23:32:43.373Z,11.57
2022-11-13T23:35:30.219Z,13.27
2022-11-13T23:38:16.283Z,16.50
2022-11-13T23:41:03.580Z,13.53
2022-11-13T23:46:55.997Z,18.07
2022-11-13T23:49:42.373Z,16.20
2022-11-13T23:52:28.833Z,16.40
2022-11-13T23:55:17.414Z,15.10
2022-11-13T23:58:11.020Z,14.20
